createdAt,value
2017-04-24T00:00:03.085Z,4.00
2017-04-24T00:01:02.757Z,4.00
2017-04-24T00:02:03.237Z,4.00
2017-04-24T00:03:02.914Z,4.10
2017-04-24T00:04:02.653Z,4.10
2017-04-24T00:05:02.416Z,4.10
2017-04-24T00:06:02.097Z,4.10
2017-04-24T00:07:01.772Z,4.10
2017-04-24T00:08:01.472Z,4.10
2017-04-24T00:09:01.225Z,4.20
2017-04-24T00:10:00.960Z,4.10
2017-04-24T00:11:01.456Z,4.20
2017-04-24T00:12:01.185Z,4.20
2017-04-24T00:13:00.908Z,4.20
2017-04-24T00:14:00.580Z,4.20
2017-04-24T00:15:00.369Z,4.20
2017-04-24T00:16:00.166Z,4.20
2017-04-24T00:16:59.838Z,4.20
2017-04-24T00:17:59.582Z,4.20
2017-04-24T00:18:59.312Z,4.20
2017-04-24T00:19:59.755Z,4.10
2017-04-24T00:20:59.536Z,4.20
2017-04-24T00:21:59.357Z,4.20
2017-04-24T00:22:59.037Z,4.20
2017-04-24T00:23:59.552Z,4.20
2017-04-24T00:24:59.302Z,4.20
2017-04-24T00:25:58.969Z,4.30
2017-04-24T00:26:58.676Z,4.30
2017-04-24T00:27:58.429Z,4.30
2017-04-24T00:28:58.132Z,4.30
2017-04-24T00:29:57.831Z,4.30
2017-04-24T00:30:57.479Z,4.30
2017-04-24T00:31:57.152Z,4.40
2017-04-24T00:32:56.851Z,4.30
2017-04-24T00:33:56.572Z,4.40
2017-04-24T00:34:56.337Z,4.30
2017-04-24T00:35:56.094Z,4.30
2017-04-24T00:36:55.773Z,4.30
2017-04-24T00:37:55.535Z,4.30
2017-04-24T00:38:55.259Z,4.20
2017-04-24T00:39:55.004Z,4.30
2017-04-24T00:40:54.685Z,4.20
2017-04-24T00:41:54.385Z,4.20
2017-04-24T00:42:54.130Z,4.30
2017-04-24T00:43:53.860Z,4.40
2017-04-24T00:44:53.542Z,4.30
2017-04-24T00:45:53.313Z,4.30
2017-04-24T00:46:53.736Z,4.30
2017-04-24T00:47:54.196Z,4.30
2017-04-24T00:48:53.885Z,4.30
2017-04-24T00:49:53.634Z,4.30
2017-04-24T00:50:53.353Z,4.30
2017-04-24T00:51:53.757Z,4.30
2017-04-24T00:52:53.453Z,4.30
2017-04-24T00:53:53.190Z,4.30
2017-04-24T00:54:52.889Z,4.30
2017-04-24T00:55:52.573Z,4.30
2017-04-24T00:56:52.323Z,4.30
2017-04-24T00:57:52.011Z,4.40
2017-04-24T00:58:51.697Z,4.30
2017-04-24T00:59:51.410Z,4.30
2017-04-24T01:00:51.116Z,4.30
2017-04-24T01:01:50.858Z,4.30
2017-04-24T01:02:50.578Z,4.30
2017-04-24T01:03:50.318Z,4.30
2017-04-24T01:04:49.999Z,4.30
2017-04-24T01:05:49.701Z,4.30
2017-04-24T01:06:49.397Z,4.30
2017-04-24T01:07:49.066Z,4.30
2017-04-24T01:08:48.869Z,4.30
2017-04-24T01:09:49.038Z,4.20
2017-04-24T01:10:48.759Z,4.20
2017-04-24T01:11:48.554Z,4.20
2017-04-24T01:12:48.954Z,4.20
2017-04-24T01:13:48.777Z,4.20
2017-04-24T01:14:49.222Z,4.20
2017-04-24T01:15:48.945Z,4.20
2017-04-24T01:16:49.381Z,4.30
2017-04-24T01:17:49.079Z,4.30
2017-04-24T01:18:48.829Z,4.30
2017-04-24T01:19:48.560Z,4.30
2017-04-24T01:20:48.287Z,4.30
2017-04-24T01:21:47.964Z,4.30
2017-04-24T01:22:47.629Z,4.30
2017-04-24T01:23:47.303Z,4.30
2017-04-24T01:24:47.049Z,4.30
2017-04-24T01:25:46.788Z,4.30
2017-04-24T01:26:47.185Z,4.20
2017-04-24T01:27:46.878Z,4.20
2017-04-24T01:28:46.558Z,4.20
2017-04-24T01:29:46.342Z,4.20
2017-04-24T01:30:46.026Z,4.20
2017-04-24T01:31:45.701Z,4.20
2017-04-24T01:32:45.361Z,4.20
2017-04-24T01:33:45.049Z,4.20
2017-04-24T01:34:44.769Z,4.20
2017-04-24T01:35:44.533Z,4.20
2017-04-24T01:36:44.216Z,4.20
2017-04-24T01:37:44.018Z,4.20
2017-04-24T01:38:43.788Z,4.20
2017-04-24T01:39:43.479Z,4.20
2017-04-24T01:40:43.153Z,4.10
2017-04-24T01:41:42.923Z,4.20
2017-04-24T01:42:42.598Z,4.20
2017-04-24T01:43:42.260Z,4.20
2017-04-24T01:44:41.925Z,4.20
2017-04-24T01:45:41.617Z,4.20
2017-04-24T01:46:41.321Z,4.20
2017-04-24T01:47:41.053Z,4.20
2017-04-24T01:48:40.738Z,4.20
2017-04-24T01:49:40.417Z,4.20
2017-04-24T01:50:40.170Z,4.20
2017-04-24T01:51:39.853Z,4.10
2017-04-24T01:52:39.581Z,4.10
2017-04-24T01:53:39.341Z,4.10
2017-04-24T01:54:39.064Z,4.00
2017-04-24T01:55:39.497Z,3.90
2017-04-24T01:56:39.190Z,4.00
2017-04-24T01:57:38.875Z,4.10
2017-04-24T01:58:38.548Z,4.00
2017-04-24T01:59:38.354Z,4.00
2017-04-24T02:00:38.074Z,4.10
2017-04-24T02:01:37.884Z,4.10
2017-04-24T02:02:37.665Z,4.00
2017-04-24T02:03:37.368Z,4.00
2017-04-24T02:04:37.782Z,4.00
2017-04-24T02:05:38.250Z,4.10
2017-04-24T02:06:38.003Z,4.20
2017-04-24T02:07:37.665Z,4.20
2017-04-24T02:08:37.348Z,4.20
2017-04-24T02:09:37.043Z,4.20
2017-04-24T02:10:36.783Z,4.20
2017-04-24T02:11:36.531Z,4.10
2017-04-24T02:12:36.250Z,4.00
2017-04-24T02:13:35.947Z,4.10
2017-04-24T02:14:35.669Z,4.10
2017-04-24T02:15:35.341Z,4.10
2017-04-24T02:16:35.089Z,4.10
2017-04-24T02:17:34.841Z,4.10
2017-04-24T02:18:34.526Z,4.00
2017-04-24T02:19:34.273Z,4.00
2017-04-24T02:20:34.018Z,4.10
2017-04-24T02:21:33.730Z,4.10
2017-04-24T02:22:33.397Z,4.10
2017-04-24T02:23:33.186Z,4.20
2017-04-24T02:24:32.910Z,4.10
2017-04-24T02:25:32.650Z,4.10
2017-04-24T02:26:32.434Z,4.10
2017-04-24T02:27:32.522Z,4.10
2017-04-24T02:28:32.269Z,4.10
2017-04-24T02:29:32.192Z,4.10
2017-04-24T02:30:31.919Z,4.10
2017-04-24T02:31:31.706Z,4.10
2017-04-24T02:32:31.414Z,4.20
2017-04-24T02:33:31.169Z,4.10
2017-04-24T02:34:31.017Z,4.10
2017-04-24T02:35:30.756Z,4.20
2017-04-24T02:36:30.488Z,4.20
2017-04-24T02:37:30.933Z,4.20
2017-04-24T02:38:30.669Z,4.20
2017-04-24T02:39:31.154Z,4.30
2017-04-24T02:40:30.916Z,4.30
2017-04-24T02:41:31.469Z,4.20
2017-04-24T02:42:31.200Z,4.20
2017-04-24T02:43:30.885Z,4.20
2017-04-24T02:44:31.577Z,4.20
2017-04-24T02:45:31.325Z,4.30
2017-04-24T02:46:30.993Z,4.30
2017-04-24T02:47:30.738Z,4.30
2017-04-24T02:48:31.150Z,4.30
2017-04-24T02:49:30.845Z,4.30
2017-04-24T02:50:30.536Z,4.30
2017-04-24T02:51:30.346Z,4.30
2017-04-24T02:52:30.010Z,4.30
2017-04-24T02:53:29.763Z,4.20
2017-04-24T02:54:30.194Z,4.20
2017-04-24T02:55:29.881Z,4.20
2017-04-24T02:56:29.558Z,4.20
2017-04-24T02:57:29.290Z,4.20
2017-04-24T02:58:28.978Z,4.20
2017-04-24T02:59:28.668Z,4.10
2017-04-24T03:00:28.335Z,4.20
2017-04-24T03:01:28.073Z,4.10
2017-04-24T03:02:27.752Z,4.00
2017-04-24T03:03:27.514Z,4.00
2017-04-24T03:04:27.259Z,4.10
2017-04-24T03:05:27.692Z,4.10
2017-04-24T03:06:27.373Z,4.10
2017-04-24T03:07:27.772Z,4.10
2017-04-24T03:08:27.517Z,4.10
2017-04-24T03:09:27.193Z,4.10
2017-04-24T03:10:26.883Z,4.10
2017-04-24T03:11:26.621Z,4.10
2017-04-24T03:12:26.388Z,4.10
2017-04-24T03:13:26.094Z,4.20
2017-04-24T03:14:25.850Z,4.10
2017-04-24T03:15:25.535Z,4.20
2017-04-24T03:16:25.229Z,4.10
2017-04-24T03:17:24.916Z,4.10
2017-04-24T03:18:24.577Z,4.10
2017-04-24T03:19:24.263Z,4.00
2017-04-24T03:20:24.009Z,4.10
2017-04-24T03:21:23.777Z,4.00
2017-04-24T03:22:23.449Z,4.00
2017-04-24T03:23:23.128Z,3.90
2017-04-24T03:24:22.809Z,3.80
2017-04-24T03:25:22.507Z,3.80
2017-04-24T03:26:22.245Z,3.80
2017-04-24T03:27:21.924Z,3.80
2017-04-24T03:28:21.664Z,3.80
2017-04-24T03:29:22.088Z,3.80
2017-04-24T03:30:21.759Z,3.80
2017-04-24T03:31:21.427Z,3.80
2017-04-24T03:32:21.205Z,3.80
2017-04-24T03:33:20.881Z,3.80
2017-04-24T03:34:20.571Z,3.80
2017-04-24T03:35:20.257Z,3.80
2017-04-24T03:36:19.921Z,3.80
2017-04-24T03:37:19.593Z,3.70
2017-04-24T03:38:19.382Z,3.60
2017-04-24T03:39:19.050Z,3.60
2017-04-24T03:40:19.516Z,3.60
2017-04-24T03:41:19.214Z,3.60
2017-04-24T03:42:18.934Z,3.60
2017-04-24T03:43:18.684Z,3.60
2017-04-24T03:44:18.378Z,3.60
2017-04-24T03:45:18.057Z,3.60
2017-04-24T03:46:17.751Z,3.60
2017-04-24T03:47:17.425Z,3.60
2017-04-24T03:48:17.094Z,3.60
2017-04-24T03:49:16.822Z,3.60
2017-04-24T03:50:17.250Z,3.60
2017-04-24T03:51:16.876Z,3.50
2017-04-24T03:52:17.333Z,3.40
2017-04-24T03:53:17.029Z,3.40
2017-04-24T03:54:16.778Z,3.40
2017-04-24T03:55:16.465Z,3.40
2017-04-24T03:56:16.120Z,3.40
2017-04-24T03:57:15.798Z,3.40
2017-04-24T03:58:15.583Z,3.40
2017-04-24T03:59:15.995Z,3.40
2017-04-24T04:00:15.769Z,3.30
2017-04-24T04:01:15.431Z,3.40
2017-04-24T04:02:15.087Z,3.30
2017-04-24T04:03:15.482Z,3.30
2017-04-24T04:04:15.133Z,3.30
2017-04-24T04:05:14.815Z,3.30
2017-04-24T04:06:14.533Z,3.20
2017-04-24T04:07:14.210Z,3.20
2017-04-24T04:08:13.885Z,3.20
2017-04-24T04:09:13.553Z,3.20
2017-04-24T04:10:13.219Z,3.20
2017-04-24T04:11:12.893Z,3.20
2017-04-24T04:12:12.808Z,3.10
2017-04-24T04:13:12.473Z,3.10
2017-04-24T04:14:12.134Z,3.10
2017-04-24T04:15:11.796Z,3.20
2017-04-24T04:16:11.479Z,3.20
2017-04-24T04:17:12.332Z,3.30
2017-04-24T04:18:12.070Z,3.40
2017-04-24T04:19:11.913Z,3.50
2017-04-24T04:20:11.607Z,3.60
2017-04-24T04:21:12.013Z,3.60
2017-04-24T04:22:11.670Z,3.60
2017-04-24T04:23:11.342Z,3.60
2017-04-24T04:24:11.096Z,3.70
2017-04-24T04:25:10.816Z,3.80
2017-04-24T04:26:10.506Z,3.80
2017-04-24T04:27:10.171Z,3.80
2017-04-24T04:28:09.853Z,3.80
2017-04-24T04:29:09.506Z,3.80
2017-04-24T04:30:09.240Z,3.90
2017-04-24T04:31:08.903Z,3.90
2017-04-24T04:32:08.568Z,4.00
2017-04-24T04:33:08.245Z,4.00
2017-04-24T04:34:07.915Z,4.10
2017-04-24T04:35:07.586Z,4.20
2017-04-24T04:36:07.364Z,4.30
2017-04-24T04:37:07.027Z,4.40
2017-04-24T04:38:06.698Z,4.50
2017-04-24T04:39:07.108Z,4.60
2017-04-24T04:40:07.545Z,4.70
2017-04-24T04:41:07.222Z,4.90
2017-04-24T04:42:06.954Z,5.10
2017-04-24T04:43:06.618Z,5.20
2017-04-24T04:44:06.307Z,5.30
2017-04-24T04:45:05.997Z,5.40
2017-04-24T04:46:05.691Z,5.50
2017-04-24T04:47:05.409Z,5.50
2017-04-24T04:48:05.161Z,5.40
2017-04-24T04:49:04.833Z,5.50
2017-04-24T04:50:04.509Z,5.70
2017-04-24T04:51:04.203Z,5.90
2017-04-24T04:52:03.901Z,6.10
2017-04-24T04:53:03.593Z,6.50
2017-04-24T04:54:04.106Z,6.80
2017-04-24T04:55:03.817Z,7.10
2017-04-24T04:56:03.516Z,7.40
2017-04-24T04:57:03.211Z,7.80
2017-04-24T04:58:03.665Z,8.20
2017-04-24T04:59:03.394Z,8.60
2017-04-24T05:00:03.077Z,9.10
2017-04-24T05:01:02.760Z,9.30
2017-04-24T05:02:02.449Z,9.90
2017-04-24T05:03:02.220Z,10.30
2017-04-24T05:04:01.915Z,10.70
2017-04-24T05:05:01.661Z,11.00
2017-04-24T05:06:01.368Z,11.30
2017-04-24T05:07:01.110Z,11.50
2017-04-24T05:08:01.545Z,11.80
2017-04-24T05:09:01.228Z,12.10
2017-04-24T05:10:01.770Z,12.30
2017-04-24T05:11:01.469Z,12.50
2017-04-24T05:12:01.199Z,12.40
2017-04-24T05:13:00.948Z,12.60
2017-04-24T05:14:00.662Z,13.00
2017-04-24T05:15:00.377Z,13.30
2017-04-24T05:16:00.138Z,13.90
2017-04-24T05:16:59.823Z,14.40
2017-04-24T05:17:59.542Z,14.90
2017-04-24T05:18:59.342Z,15.40
2017-04-24T05:19:59.037Z,16.20
2017-04-24T05:20:59.536Z,16.70
2017-04-24T05:21:59.260Z,16.90
2017-04-24T05:22:58.954Z,16.70
2017-04-24T05:23:58.645Z,16.80
2017-04-24T05:24:58.359Z,17.10
2017-04-24T05:25:58.054Z,17.80
2017-04-24T05:26:57.861Z,18.30
2017-04-24T05:27:57.555Z,18.50
2017-04-24T05:28:57.255Z,18.40
2017-04-24T05:29:56.954Z,18.60
2017-04-24T05:30:56.731Z,18.80
2017-04-24T05:31:56.426Z,18.70
2017-04-24T05:32:56.165Z,19.00
2017-04-24T05:33:55.889Z,19.50
2017-04-24T05:34:55.598Z,19.70
2017-04-24T05:35:55.298Z,19.70
2017-04-24T05:36:54.978Z,20.10
2017-04-24T05:37:54.676Z,20.40
2017-04-24T05:38:55.258Z,21.00
2017-04-24T05:39:54.925Z,21.40
2017-04-24T05:40:54.618Z,20.90
2017-04-24T05:41:54.355Z,20.70
2017-04-24T05:42:54.790Z,21.10
2017-04-24T05:44:54.429Z,20.90
2017-04-24T05:45:54.137Z,20.70
2017-04-24T05:46:53.803Z,20.90
2017-04-24T05:47:53.498Z,20.90
2017-04-24T05:48:53.201Z,20.70
2017-04-24T05:49:52.887Z,20.90
2017-04-24T05:50:53.384Z,20.90
2017-04-24T05:51:53.087Z,20.60
2017-04-24T05:52:52.776Z,20.50
2017-04-24T05:53:52.497Z,21.00
2017-04-24T05:54:52.193Z,21.30
2017-04-24T05:55:51.862Z,21.50
2017-04-24T05:56:51.610Z,22.10
2017-04-24T05:57:51.313Z,22.60
2017-04-24T05:58:50.993Z,23.00
2017-04-24T05:59:50.688Z,22.90
2017-04-24T06:00:50.596Z,22.60
2017-04-24T06:01:50.474Z,22.90
2017-04-24T06:02:50.233Z,23.10
2017-04-24T06:03:49.942Z,23.40
2017-04-24T06:04:49.630Z,23.50
2017-04-24T06:05:49.319Z,23.60
2017-04-24T06:06:49.014Z,23.70
2017-04-24T06:07:48.709Z,23.50
2017-04-24T06:08:48.484Z,23.40
2017-04-24T06:09:48.190Z,23.40
2017-04-24T06:11:47.793Z,24.30
2017-04-24T06:12:47.505Z,24.30
2017-04-24T06:13:47.309Z,23.90
2017-04-24T06:14:47.116Z,23.60
2017-04-24T06:15:46.885Z,24.00
2017-04-24T06:16:46.668Z,23.90
2017-04-24T06:17:46.389Z,23.70
2017-04-24T06:18:46.129Z,23.70
2017-04-24T06:19:45.865Z,24.00
2017-04-24T06:20:45.651Z,24.00
2017-04-24T06:21:46.126Z,23.30
2017-04-24T06:23:45.790Z,23.90
2017-04-24T06:24:45.556Z,23.20
2017-04-24T06:25:45.371Z,23.60
2017-04-24T06:26:45.059Z,23.50
2017-04-24T06:27:45.497Z,23.50
2017-04-24T06:28:45.252Z,23.70
2017-04-24T06:29:44.894Z,24.40
2017-04-24T06:30:44.685Z,24.60
2017-04-24T06:31:44.458Z,25.20
2017-04-24T06:32:44.166Z,25.50
2017-04-24T06:33:43.866Z,25.40
2017-04-24T06:34:43.561Z,25.70
2017-04-24T06:35:43.257Z,25.60
2017-04-24T06:36:42.949Z,25.90
2017-04-24T06:37:42.688Z,26.20
2017-04-24T06:38:42.381Z,26.00
2017-04-24T06:39:42.093Z,26.20
2017-04-24T06:40:41.786Z,26.20
2017-04-24T06:41:41.572Z,26.50
2017-04-24T06:42:42.035Z,26.20
2017-04-24T06:43:41.817Z,25.90
2017-04-24T06:44:41.514Z,25.50
2017-04-24T06:45:41.213Z,26.10
2017-04-24T06:46:40.898Z,26.50
2017-04-24T06:47:40.577Z,27.00
2017-04-24T06:48:40.248Z,27.40
2017-04-24T06:49:40.026Z,26.70
2017-04-24T06:50:39.713Z,26.20
2017-04-24T06:51:39.400Z,25.70
2017-04-24T06:52:39.125Z,25.30
2017-04-24T06:53:38.828Z,25.50
2017-04-24T06:54:38.526Z,25.60
2017-04-24T06:55:38.338Z,25.20
2017-04-24T06:56:38.032Z,25.80
2017-04-24T06:57:37.721Z,26.30
2017-04-24T06:58:37.468Z,25.80
2017-04-24T06:59:37.149Z,24.50
2017-04-24T07:00:37.564Z,23.30
2017-04-24T07:01:37.682Z,22.80
2017-04-24T07:02:37.369Z,22.90
2017-04-24T07:03:37.045Z,23.10
2017-04-24T07:04:36.788Z,23.60
2017-04-24T07:05:36.482Z,23.60
2017-04-24T07:06:36.182Z,23.70
2017-04-24T07:07:35.925Z,24.00
2017-04-24T07:08:35.618Z,24.30
2017-04-24T07:09:35.329Z,24.50
2017-04-24T07:10:35.025Z,25.40
2017-04-24T07:11:34.712Z,25.90
2017-04-24T07:12:34.382Z,26.80
2017-04-24T07:13:34.117Z,27.00
2017-04-24T07:14:34.016Z,26.90
2017-04-24T07:15:33.715Z,27.10
2017-04-24T07:16:33.410Z,27.20
2017-04-24T07:17:33.114Z,27.00
2017-04-24T07:18:33.019Z,27.40
2017-04-24T07:19:32.761Z,27.50
2017-04-24T07:20:32.412Z,26.70
2017-04-24T07:21:32.157Z,25.60
2017-04-24T07:22:31.861Z,23.90
2017-04-24T07:23:31.566Z,22.30
2017-04-24T07:24:31.261Z,21.10
2017-04-24T07:25:31.034Z,20.80
2017-04-24T07:26:31.098Z,20.90
2017-04-24T07:27:30.782Z,21.80
2017-04-24T07:28:30.456Z,22.90
2017-04-24T07:29:30.470Z,24.00
2017-04-24T07:30:30.153Z,24.70
2017-04-24T07:31:29.906Z,25.30
2017-04-24T07:32:29.582Z,26.00
2017-04-24T07:33:29.282Z,26.70
2017-04-24T07:34:28.982Z,26.80
2017-04-24T07:35:28.688Z,27.40
2017-04-24T07:36:28.442Z,27.60
2017-04-24T07:37:28.157Z,27.80
2017-04-24T07:38:27.877Z,27.70
2017-04-24T07:39:27.589Z,26.70
2017-04-24T07:40:27.268Z,25.70
2017-04-24T07:41:26.980Z,24.90
2017-04-24T07:42:26.718Z,25.00
2017-04-24T07:43:26.495Z,24.70
2017-04-24T07:44:26.193Z,23.60
2017-04-24T07:45:25.894Z,22.30
2017-04-24T07:46:25.599Z,21.80
2017-04-24T07:47:25.270Z,22.20
2017-04-24T07:48:24.969Z,22.50
2017-04-24T07:49:24.709Z,22.50
2017-04-24T07:50:24.464Z,23.10
2017-04-24T07:51:24.909Z,23.10
2017-04-24T07:52:24.653Z,22.30
2017-04-24T07:53:24.341Z,21.30
2017-04-24T07:54:24.124Z,21.00
2017-04-24T07:55:23.899Z,20.20
2017-04-24T07:56:23.633Z,19.40
2017-04-24T07:57:23.331Z,19.60
2017-04-24T07:58:23.016Z,20.30
2017-04-24T07:59:22.701Z,21.20
2017-04-24T08:00:22.425Z,21.20
2017-04-24T08:01:22.278Z,22.00
2017-04-24T08:02:22.001Z,22.90
2017-04-24T08:03:21.702Z,24.10
2017-04-24T08:04:21.404Z,24.60
2017-04-24T08:05:21.125Z,25.00
2017-04-24T08:06:20.855Z,25.60
2017-04-24T08:07:20.631Z,25.60
2017-04-24T08:08:20.348Z,25.20
2017-04-24T08:09:20.047Z,24.60
2017-04-24T08:10:19.770Z,23.90
2017-04-24T08:11:19.479Z,23.60
2017-04-24T08:12:19.203Z,24.10
2017-04-24T08:13:18.991Z,24.40
2017-04-24T08:14:18.715Z,24.90
2017-04-24T08:15:18.587Z,25.20
2017-04-24T08:16:18.293Z,25.30
2017-04-24T08:17:17.988Z,25.10
2017-04-24T08:18:17.697Z,23.80
2017-04-24T08:19:17.439Z,22.30
2017-04-24T08:20:17.150Z,21.00
2017-04-24T08:21:16.864Z,20.40
2017-04-24T08:22:16.573Z,20.50
2017-04-24T08:23:16.306Z,21.20
2017-04-24T08:24:16.008Z,22.50
2017-04-24T08:25:15.760Z,23.60
2017-04-24T08:26:15.441Z,24.20
2017-04-24T08:27:15.129Z,25.10
2017-04-24T08:28:14.821Z,25.40
2017-04-24T08:29:14.513Z,25.40
2017-04-24T08:30:14.961Z,25.60
2017-04-24T08:31:14.711Z,26.00
2017-04-24T08:32:14.440Z,26.10
2017-04-24T08:33:14.141Z,26.50
2017-04-24T08:34:13.826Z,26.70
2017-04-24T08:35:13.552Z,27.60
2017-04-24T08:36:13.258Z,27.90
2017-04-24T08:37:12.992Z,27.90
2017-04-24T08:38:12.707Z,27.50
2017-04-24T08:39:12.404Z,27.40
2017-04-24T08:40:12.116Z,26.50
2017-04-24T08:41:11.809Z,25.40
2017-04-24T08:42:11.568Z,23.40
2017-04-24T08:43:11.378Z,22.40
2017-04-24T08:44:11.072Z,22.00
2017-04-24T08:45:10.782Z,22.10
2017-04-24T08:46:10.505Z,22.50
2017-04-24T08:47:10.449Z,23.40
2017-04-24T08:48:10.163Z,24.70
2017-04-24T08:49:09.916Z,25.50
2017-04-24T08:50:09.641Z,26.30
2017-04-24T08:51:09.338Z,27.10
2017-04-24T08:52:09.078Z,27.60
2017-04-24T08:53:08.787Z,27.10
2017-04-24T08:54:08.503Z,26.50
2017-04-24T08:55:08.998Z,25.00
2017-04-24T08:56:08.729Z,23.30
2017-04-24T08:57:08.438Z,21.50
2017-04-24T08:58:08.266Z,20.30
2017-04-24T08:59:07.981Z,19.60
2017-04-24T09:00:07.746Z,19.00
2017-04-24T09:01:07.570Z,18.60
2017-04-24T09:02:07.285Z,18.10
2017-04-24T09:03:07.018Z,17.50
2017-04-24T09:04:07.482Z,16.90
2017-04-24T09:05:07.215Z,16.60
2017-04-24T09:06:06.922Z,16.30
2017-04-24T09:07:07.471Z,16.10
2017-04-24T09:08:07.199Z,16.20
2017-04-24T09:09:06.938Z,16.70
2017-04-24T09:10:07.410Z,17.80
2017-04-24T09:11:07.171Z,19.20
2017-04-24T09:12:06.901Z,20.50
2017-04-24T09:13:06.665Z,21.20
2017-04-24T09:14:07.114Z,22.10
2017-04-24T09:15:06.832Z,23.00
2017-04-24T09:16:06.670Z,23.70
2017-04-24T09:17:06.381Z,24.10
2017-04-24T09:18:06.103Z,24.60
2017-04-24T09:19:05.872Z,24.90
2017-04-24T09:20:05.598Z,25.00
2017-04-24T09:21:05.302Z,24.20
2017-04-24T09:22:05.103Z,22.90
2017-04-24T09:23:04.837Z,22.40
2017-04-24T09:24:04.554Z,21.90
2017-04-24T09:25:04.350Z,20.90
2017-04-24T09:26:04.066Z,20.00
2017-04-24T09:27:03.761Z,19.40
2017-04-24T09:28:03.471Z,18.80
2017-04-24T09:29:03.941Z,18.30
2017-04-24T09:30:03.640Z,18.00
2017-04-24T09:31:03.464Z,17.80
2017-04-24T09:32:03.162Z,17.40
2017-04-24T09:33:02.865Z,17.10
2017-04-24T09:34:02.584Z,16.90
2017-04-24T09:35:02.334Z,16.60
2017-04-24T09:36:02.021Z,16.40
2017-04-24T09:37:01.775Z,16.40
2017-04-24T09:38:02.213Z,16.50
2017-04-24T09:39:01.920Z,16.40
2017-04-24T09:40:01.616Z,16.60
2017-04-24T09:41:01.371Z,16.60
2017-04-24T09:42:01.146Z,16.70
2017-04-24T09:43:00.949Z,16.60
2017-04-24T09:44:00.652Z,16.20
2017-04-24T09:45:00.432Z,16.10
2017-04-24T09:46:00.174Z,15.90
2017-04-24T09:46:59.900Z,15.60
2017-04-24T09:47:59.693Z,15.20
2017-04-24T09:48:59.441Z,15.10
2017-04-24T09:49:59.174Z,15.00
2017-04-24T09:50:58.868Z,15.00
2017-04-24T09:51:58.684Z,14.80
2017-04-24T09:52:59.274Z,14.70
2017-04-24T09:53:59.027Z,14.70
2017-04-24T09:54:58.750Z,14.60
2017-04-24T09:55:58.497Z,14.60
2017-04-24T09:56:58.233Z,14.60
2017-04-24T09:57:57.968Z,14.40
2017-04-24T09:58:57.722Z,14.20
2017-04-24T09:59:57.509Z,14.20
2017-04-24T10:00:57.242Z,14.20
2017-04-24T10:01:56.941Z,14.20
2017-04-24T10:02:56.673Z,14.20
2017-04-24T10:03:56.403Z,14.10
2017-04-24T10:04:56.168Z,14.00
2017-04-24T10:05:56.216Z,13.70
2017-04-24T10:06:55.921Z,13.40
2017-04-24T10:07:55.653Z,13.10
2017-04-24T10:08:55.375Z,13.10
2017-04-24T10:09:55.108Z,13.10
2017-04-24T10:10:54.973Z,13.10
2017-04-24T10:11:54.711Z,13.00
2017-04-24T10:12:54.421Z,12.90
2017-04-24T10:13:54.142Z,12.90
2017-04-24T10:14:53.874Z,13.00
2017-04-24T10:15:53.598Z,13.10
2017-04-24T10:16:53.430Z,13.30
2017-04-24T10:17:53.137Z,13.30
2017-04-24T10:18:52.849Z,13.40
2017-04-24T10:19:52.549Z,13.40
2017-04-24T10:20:52.256Z,13.50
2017-04-24T10:21:51.975Z,13.50
2017-04-24T10:22:51.750Z,13.60
2017-04-24T10:23:51.478Z,13.60
2017-04-24T10:24:51.164Z,13.60
2017-04-24T10:25:50.876Z,13.60
2017-04-24T10:26:51.334Z,13.70
2017-04-24T10:27:51.080Z,13.70
2017-04-24T10:28:50.862Z,13.80
2017-04-24T10:29:50.557Z,13.80
2017-04-24T10:30:50.293Z,13.80
2017-04-24T10:31:50.761Z,13.90
2017-04-24T10:32:50.456Z,13.90
2017-04-24T10:33:50.165Z,14.00
2017-04-24T10:34:49.964Z,14.00
2017-04-24T10:35:49.682Z,14.20
2017-04-24T10:36:49.408Z,14.10
2017-04-24T10:37:49.110Z,14.10
2017-04-24T10:38:48.851Z,14.00
2017-04-24T10:39:48.562Z,13.90
2017-04-24T10:40:48.739Z,13.70
2017-04-24T10:41:48.450Z,13.50
2017-04-24T10:42:48.152Z,13.30
2017-04-24T10:43:47.862Z,13.30
2017-04-24T10:44:47.605Z,13.30
2017-04-24T10:45:47.297Z,13.40
2017-04-24T10:46:47.084Z,13.30
2017-04-24T10:47:46.809Z,13.40
2017-04-24T10:48:47.244Z,13.60
2017-04-24T10:49:47.030Z,13.80
2017-04-24T10:50:47.534Z,14.00
2017-04-24T10:51:47.294Z,14.00
2017-04-24T10:52:47.069Z,14.10
2017-04-24T10:53:46.798Z,13.90
2017-04-24T10:54:46.613Z,13.80
2017-04-24T10:55:46.329Z,13.90
2017-04-24T10:56:46.048Z,13.90
2017-04-24T10:57:45.822Z,14.00
2017-04-24T10:58:45.520Z,14.00
2017-04-24T10:59:45.241Z,14.10
2017-04-24T11:00:44.938Z,14.20
2017-04-24T11:01:45.413Z,14.20
2017-04-24T11:02:45.146Z,14.20
2017-04-24T11:03:44.990Z,14.20
2017-04-24T11:04:44.734Z,14.20
2017-04-24T11:05:44.427Z,14.10
2017-04-24T11:06:44.165Z,14.10
2017-04-24T11:07:43.859Z,14.10
2017-04-24T11:08:43.550Z,14.10
2017-04-24T11:09:43.342Z,14.20
2017-04-24T11:10:43.816Z,14.30
2017-04-24T11:11:43.530Z,14.30
2017-04-24T11:12:43.248Z,14.30
2017-04-24T11:13:42.968Z,14.40
2017-04-24T11:14:43.456Z,14.40
2017-04-24T11:15:43.160Z,14.50
2017-04-24T11:16:42.913Z,14.40
2017-04-24T11:17:43.106Z,14.40
2017-04-24T11:18:42.879Z,14.30
2017-04-24T11:19:43.584Z,14.30
2017-04-24T11:20:43.297Z,14.30
2017-04-24T11:21:42.998Z,14.20
2017-04-24T11:22:43.527Z,14.10
2017-04-24T11:23:43.251Z,14.30
2017-04-24T11:24:42.974Z,14.40
2017-04-24T11:25:42.733Z,14.40
2017-04-24T11:26:42.408Z,14.40
2017-04-24T11:27:42.146Z,14.40
2017-04-24T11:28:41.909Z,14.40
2017-04-24T11:29:41.618Z,14.30
2017-04-24T11:30:41.334Z,14.30
2017-04-24T11:31:41.092Z,14.30
2017-04-24T11:32:40.808Z,14.30
2017-04-24T11:33:41.244Z,14.30
2017-04-24T11:34:40.949Z,14.10
2017-04-24T11:35:40.649Z,13.90
2017-04-24T11:36:40.366Z,13.70
2017-04-24T11:37:40.177Z,13.70
2017-04-24T11:38:39.867Z,13.60
2017-04-24T11:39:39.607Z,13.60
2017-04-24T11:40:39.307Z,13.70
2017-04-24T11:41:38.997Z,13.80
2017-04-24T11:42:38.717Z,13.90
2017-04-24T11:43:39.270Z,13.90
2017-04-24T11:44:38.986Z,14.20
2017-04-24T11:45:38.716Z,14.20
2017-04-24T11:46:38.412Z,14.30
2017-04-24T11:47:38.195Z,14.20
2017-04-24T11:48:37.894Z,14.20
2017-04-24T11:49:37.693Z,14.30
2017-04-24T11:50:37.414Z,14.40
2017-04-24T11:51:37.112Z,14.40
2017-04-24T11:52:36.831Z,14.40
2017-04-24T11:53:36.565Z,14.50
2017-04-24T11:54:37.016Z,14.50
2017-04-24T11:55:36.778Z,14.50
2017-04-24T11:56:36.501Z,14.50
2017-04-24T11:57:36.955Z,14.40
2017-04-24T11:58:37.420Z,14.40
2017-04-24T11:59:37.130Z,14.40
2017-04-24T12:00:37.023Z,14.40
2017-04-24T12:01:36.733Z,14.50
2017-04-24T12:02:36.443Z,14.60
2017-04-24T12:03:36.141Z,14.60
2017-04-24T12:04:35.838Z,14.80
2017-04-24T12:05:35.570Z,15.00
2017-04-24T12:06:35.350Z,15.10
2017-04-24T12:07:35.033Z,15.20
2017-04-24T12:08:34.881Z,15.10
2017-04-24T12:09:34.605Z,15.00
2017-04-24T12:10:35.062Z,14.90
2017-04-24T12:11:34.846Z,14.80
2017-04-24T12:12:35.337Z,14.80
2017-04-24T12:13:35.063Z,15.00
2017-04-24T12:14:34.798Z,14.90
2017-04-24T12:15:35.276Z,14.80
2017-04-24T12:16:35.049Z,14.80
2017-04-24T12:17:34.782Z,14.60
2017-04-24T12:18:34.660Z,14.50
2017-04-24T12:19:34.372Z,14.50
2017-04-24T12:20:34.062Z,14.40
2017-04-24T12:21:33.752Z,14.30
2017-04-24T12:22:33.514Z,14.30
2017-04-24T12:23:33.224Z,14.40
2017-04-24T12:24:32.921Z,14.40
2017-04-24T12:25:32.642Z,14.40
2017-04-24T12:26:32.365Z,14.40
2017-04-24T12:27:32.644Z,14.30
2017-04-24T12:28:32.406Z,14.10
2017-04-24T12:29:32.115Z,14.20
2017-04-24T12:30:32.587Z,14.10
2017-04-24T12:31:32.354Z,14.20
2017-04-24T12:32:37.276Z,14.20
2017-04-24T12:33:37.060Z,14.20
2017-04-24T12:34:36.784Z,14.20
2017-04-24T12:35:36.476Z,14.20
2017-04-24T12:36:36.187Z,14.30
2017-04-24T12:37:35.884Z,14.30
2017-04-24T12:38:35.668Z,14.30
2017-04-24T12:39:35.452Z,14.30
2017-04-24T12:40:35.222Z,14.20
2017-04-24T12:41:34.957Z,14.20
2017-04-24T12:42:34.669Z,14.30
2017-04-24T12:43:34.362Z,14.30
2017-04-24T12:44:34.662Z,14.40
2017-04-24T12:45:35.238Z,14.40
2017-04-24T12:46:34.986Z,14.40
2017-04-24T12:47:34.794Z,14.40
2017-04-24T12:48:34.499Z,14.40
2017-04-24T12:49:34.189Z,14.50
2017-04-24T12:50:33.881Z,14.60
2017-04-24T12:51:33.795Z,14.70
2017-04-24T12:52:33.482Z,14.80
2017-04-24T12:53:33.205Z,14.80
2017-04-24T12:54:32.916Z,14.90
2017-04-24T12:55:32.661Z,14.70
2017-04-24T12:56:33.242Z,14.80
2017-04-24T12:57:32.977Z,14.90
2017-04-24T12:58:32.689Z,14.90
2017-04-24T12:59:32.667Z,14.90
2017-04-24T13:00:32.375Z,14.90
2017-04-24T13:01:32.093Z,14.70
2017-04-24T13:02:32.585Z,14.70